Time;durP1;ratioP1;P1;durP2;ratioP2;P2;SDS_P1;SDS_P2;PMS_P1;PMS_P2;Temp;Humidity;BMP_temperature;BMP_pressure;BME280_temperature;BME280_humidity;BME280_pressure;Samples;Min_cycle;Max_cycle;Signal;HPM_P1;HPM_P2
2021/06/15 00:01:06;;;;;;;5.50;1.42;;;;;;;16.76;66.14;100778.50;6340180;28;20190;-75
2021/06/15 00:04:10;;;;;;;1.50;1.40;;;;;;;16.74;66.41;100770.50;6338690;28;20183;-75
2021/06/15 00:07:15;;;;;;;4.25;1.60;;;;;;;16.79;66.43;100791.78;6339337;28;20250;-75
2021/06/15 00:10:21;;;;;;;2.10;1.60;;;;;;;16.64;67.37;100783.34;6338626;28;20411;-75
2021/06/15 00:13:26;;;;;;;6.90;1.50;;;;;;;16.75;67.00;100779.59;6338450;28;20489;-75
2021/06/15 00:16:31;;;;;;;6.50;1.70;;;;;;;16.65;67.92;100790.50;6339472;28;20250;-75
2021/06/15 00:19:36;;;;;;;4.60;1.75;;;;;;;16.79;67.74;100780.75;6338421;28;20505;-75
2021/06/15 00:22:40;;;;;;;7.55;1.70;;;;;;;16.82;67.96;100780.22;6339489;28;20263;-75
2021/06/15 00:25:44;;;;;;;4.25;1.40;;;;;;;16.70;68.13;100787.81;6338391;28;20218;-75
2021/06/15 00:28:50;;;;;;;3.05;1.80;;;;;;;16.77;68.52;100794.78;6339091;28;20213;-75
2021/06/15 00:31:55;;;;;;;2.95;1.67;;;;;;;16.86;68.17;100792.41;6338039;28;20206;-75
2021/06/15 00:34:59;;;;;;;1.60;1.38;;;;;;;16.89;67.79;100797.41;6337943;28;20300;-75
2021/06/15 00:38:05;;;;;;;7.18;1.65;;;;;;;16.85;68.27;100791.56;6338907;28;20193;-75
2021/06/15 00:41:09;;;;;;;8.38;1.70;;;;;;;16.72;68.10;100805.75;6339291;28;20250;-75
2021/06/15 00:44:13;;;;;;;3.75;1.77;;;;;;;16.63;68.42;100803.72;6337702;28;20183;-75
2021/06/15 00:47:19;;;;;;;5.20;1.70;;;;;;;16.74;68.34;100802.75;6322843;28;20564;-75
2021/06/15 00:50:25;;;;;;;5.13;1.55;;;;;;;16.66;68.44;100816.97;6364330;28;20190;-75
2021/06/15 00:53:30;;;;;;;8.40;1.73;;;;;;;16.51;68.51;100811.25;6364293;28;20227;-75
2021/06/15 00:56:34;;;;;;;4.47;1.98;;;;;;;16.64;68.39;100810.91;6344904;28;20212;-75
2021/06/15 00:59:38;;;;;;;3.22;1.90;;;;;;;16.63;68.39;100820.22;6344806;28;20202;-75
2021/06/15 01:02:45;;;;;;;7.25;1.80;;;;;;;16.64;68.68;100810.91;6363853;28;20245;-75
2021/06/15 01:05:52;;;;;;;5.40;1.63;;;;;;;16.62;68.31;100821.31;6345078;28;20589;-75
2021/06/15 01:09:06;;;;;;;7.15;1.77;;;;;;;16.58;68.76;100811.91;6344549;28;20469;-75
2021/06/15 01:12:29;;;;;;;18.38;1.95;;;;;;;16.63;68.33;100812.81;6363914;28;20182;-75
2021/06/15 01:15:40;;;;;;;8.20;2.10;;;;;;;16.40;69.58;100812.19;6363766;28;20183;-75
2021/06/15 01:18:50;;;;;;;18.95;1.77;;;;;;;16.53;68.71;100817.34;6363349;28;20186;-75
2021/06/15 01:22:07;;;;;;;8.93;1.48;;;;;;;16.55;68.90;100817.94;6362704;28;20186;-75
2021/06/15 01:25:23;;;;;;;8.18;1.80;;;;;;;16.52;68.82;100826.66;6345331;28;20272;-75
2021/06/15 01:28:33;;;;;;;8.60;1.90;;;;;;;16.50;68.91;100826.09;6345008;28;20267;-75
2021/06/15 01:31:43;;;;;;;4.80;1.77;;;;;;;16.46;69.18;100830.47;6344556;28;20273;-75
2021/06/15 01:34:49;;;;;;;8.73;1.92;;;;;;;16.55;69.04;100834.44;6362960;28;20183;-75
2021/06/15 01:37:59;;;;;;;4.72;1.65;;;;;;;16.45;69.11;100839.78;6344740;28;20260;-75
2021/06/15 01:41:11;;;;;;;5.45;1.60;;;;;;;16.33;69.43;100842.69;6344755;28;20229;-75
2021/06/15 01:44:19;;;;;;;2.38;1.65;;;;;;;16.16;70.09;100841.88;6343929;28;20431;-75
2021/06/15 01:47:27;;;;;;;4.68;1.65;;;;;;;16.23;69.65;100854.38;6362882;28;20226;-75
2021/06/15 01:50:35;;;;;;;4.10;1.42;;;;;;;16.32;69.59;100845.69;6363173;28;20210;-75
2021/06/15 01:53:45;;;;;;;7.30;1.45;;;;;;;16.18;69.67;100840.53;6362842;28;20224;-75
2021/06/15 01:56:55;;;;;;;2.63;1.48;;;;;;;16.26;69.86;100856.63;6344055;28;20198;-75
2021/06/15 02:00:08;;;;;;;7.00;1.90;;;;;;;15.91;70.60;100847.84;6343811;28;20497;-75
2021/06/15 02:03:25;;;;;;;3.25;1.48;;;;;;;16.17;69.82;100858.16;6362073;28;20189;-75
2021/06/15 02:06:30;;;;;;;8.25;1.60;;;;;;;16.18;69.73;100859.81;6362723;28;20249;-75
2021/06/15 02:09:38;;;;;;;2.58;1.27;;;;;;;16.08;69.92;100867.91;6361579;28;20513;-75
2021/06/15 02:13:19;;;;;;;3.45;1.70;;;;;;;16.00;70.60;100871.09;6308642;28;20206;-75
2021/06/15 02:16:51;;;;;;;1.58;1.42;;;;;;;16.04;70.06;100877.78;6338559;28;20229;-75
2021/06/15 02:20:17;;;;;;;2.20;1.48;;;;;;;16.14;70.02;100886.19;6343422;28;20459;-75
2021/06/15 02:23:24;;;;;;;3.53;1.55;;;;;;;16.16;69.59;100880.41;6344470;28;20229;-75
2021/06/15 02:26:31;;;;;;;4.45;1.35;;;;;;;16.20;69.46;100900.84;6362494;28;20220;-75
2021/06/15 02:29:37;;;;;;;2.58;1.40;;;;;;;16.08;69.96;100900.94;6343790;28;20278;-75
2021/06/15 02:32:44;;;;;;;4.63;1.63;;;;;;;15.92;70.32;100895.47;6343331;28;20204;-75
2021/06/15 02:35:52;;;;;;;6.45;1.50;;;;;;;15.87;70.65;100903.63;6343191;28;20252;-75
2021/06/15 02:39:04;;;;;;;2.45;1.50;;;;;;;15.89;70.57;100907.81;6362655;28;20186;-75
2021/06/15 02:42:17;;;;;;;2.97;1.58;;;;;;;15.93;70.13;100908.94;6344601;28;20190;-75
2021/06/15 02:45:27;;;;;;;5.90;1.73;;;;;;;15.86;70.13;100911.03;6343275;28;20198;-75
2021/06/15 02:48:36;;;;;;;1.80;1.50;;;;;;;15.83;70.43;100908.78;6346185;28;20279;-75
2021/06/15 02:51:48;;;;;;;4.53;1.65;;;;;;;15.82;70.49;100901.59;6348129;28;20265;-75
2021/06/15 02:55:00;;;;;;;2.70;1.60;;;;;;;16.03;70.13;100920.13;6349217;28;20243;-75
2021/06/15 02:58:08;;;;;;;4.35;1.92;;;;;;;15.98;69.92;100922.78;6349464;28;20183;-75
2021/06/15 03:01:12;;;;;;;1.67;1.38;;;;;;;15.81;70.42;100921.97;6349060;28;20201;-75
2021/06/15 03:04:26;;;;;;;5.50;1.30;;;;;;;15.94;70.02;100921.63;6365660;28;20182;-75
2021/06/15 03:07:32;;;;;;;8.60;1.90;;;;;;;15.89;70.09;100934.47;6366616;28;20183;-75
2021/06/15 03:10:38;;;;;;;4.43;1.50;;;;;;;15.90;70.29;100936.97;6347342;28;20222;-75
2021/06/15 03:13:49;;;;;;;3.97;1.65;;;;;;;15.89;70.43;100940.81;6347733;28;20198;-75
2021/06/15 03:16:58;;;;;;;5.22;1.35;;;;;;;15.92;70.60;100940.28;6348427;28;20270;-75
2021/06/15 03:20:13;;;;;;;1.98;1.60;;;;;;;15.81;69.82;100938.47;6347751;28;20249;-75
2021/06/15 03:23:47;;;;;;;3.67;1.88;;;;;;;15.78;70.38;100949.97;6366626;28;20214;-75
2021/06/15 03:27:00;;;;;;;2.03;1.60;;;;;;;15.77;70.18;100951.03;6343329;28;20198;-75
2021/06/15 03:30:09;;;;;;;5.75;1.50;;;;;;;15.82;70.77;100956.63;6347091;28;20224;-74
2021/06/15 03:33:17;;;;;;;3.33;1.67;;;;;;;15.89;70.70;100946.31;6347885;28;20243;-75
2021/06/15 03:36:26;;;;;;;4.88;1.60;;;;;;;15.96;70.46;100963.50;6366208;28;20227;-75
2021/06/15 03:39:35;;;;;;;3.20;1.48;;;;;;;16.02;69.88;100973.47;6347685;28;20273;-75
2021/06/15 03:42:42;;;;;;;4.43;1.55;;;;;;;15.93;70.25;100963.97;6365133;28;20182;-75
2021/06/15 03:45:49;;;;;;;5.53;1.52;;;;;;;15.99;70.28;100982.25;6364716;28;20477;-75
2021/06/15 03:48:55;;;;;;;7.10;1.70;;;;;;;15.92;70.00;100970.56;6364378;28;20230;-75
2021/06/15 03:52:03;;;;;;;4.28;1.60;;;;;;;15.99;69.97;100979.50;6364431;28;20277;-75
2021/06/15 03:55:10;;;;;;;4.68;1.85;;;;;;;15.79;69.75;100956.31;6365958;28;20254;-75
2021/06/15 03:58:16;;;;;;;3.22;1.35;;;;;;;15.97;70.39;100992.66;6364923;28;20231;-75
2021/06/15 04:01:20;;;;;;;5.82;1.65;;;;;;;16.00;69.71;100997.66;6364705;28;20224;-75
2021/06/15 04:04:25;;;;;;;4.15;1.55;;;;;;;15.96;69.46;100993.75;6364145;28;20182;-75
2021/06/15 04:07:32;;;;;;;3.80;1.70;;;;;;;15.86;69.76;100985.31;6364064;28;20376;-75
2021/06/15 04:10:38;;;;;;;2.35;1.48;;;;;;;16.06;69.23;100980.16;6364951;28;20206;-75
2021/06/15 04:13:43;;;;;;;3.75;1.45;;;;;;;16.06;69.03;100991.19;6363867;28;20243;-75
2021/06/15 04:16:49;;;;;;;6.68;1.60;;;;;;;16.08;68.93;100989.00;6364804;28;20186;-75
2021/06/15 04:19:57;;;;;;;5.72;1.60;;;;;;;16.12;68.89;101000.38;6346909;28;20226;-75
2021/06/15 04:23:06;;;;;;;5.05;1.80;;;;;;;16.18;68.23;101005.69;6364762;28;20249;-75
2021/06/15 04:26:10;;;;;;;2.70;1.60;;;;;;;16.09;67.50;101001.69;6365058;28;20227;-75
2021/06/15 04:29:15;;;;;;;2.08;1.38;;;;;;;16.10;67.23;101011.59;6364930;28;20186;-75
2021/06/15 04:32:21;;;;;;;4.95;1.40;;;;;;;15.97;67.45;100998.16;6364864;28;20213;-75
2021/06/15 04:35:28;;;;;;;4.55;1.60;;;;;;;15.96;66.54;101003.94;6363482;28;20371;-75
2021/06/15 04:38:38;;;;;;;5.80;1.45;;;;;;;15.96;66.52;101013.03;6363301;28;20450;-75
2021/06/15 04:41:49;;;;;;;4.32;1.27;;;;;;;15.99;66.29;101018.03;6364682;28;20194;-75
2021/06/15 04:44:55;;;;;;;6.65;1.67;;;;;;;16.05;66.14;101013.47;6363023;28;20183;-75
2021/06/15 04:48:04;;;;;;;3.83;1.50;;;;;;;16.03;65.81;101019.19;6363071;28;20293;-75
2021/06/15 04:51:10;;;;;;;2.88;1.50;;;;;;;16.13;66.09;101022.13;6362977;28;20206;-75
2021/06/15 04:54:21;;;;;;;4.65;1.75;;;;;;;16.14;65.74;101023.81;6362857;28;20492;-75
2021/06/15 05:00:53;;;;;;;2.67;1.17;;;;;;;15.99;64.62;101026.28;6363691;28;20225;-75
2021/06/15 05:03:59;;;;;;;4.50;1.20;;;;;;;15.87;63.66;101025.50;6364007;28;20182;-75
2021/06/15 05:07:04;;;;;;;1.58;1.48;;;;;;;16.04;64.13;101036.53;6362645;28;20213;-75
2021/06/15 05:10:13;;;;;;;4.32;1.20;;;;;;;15.97;63.54;101030.38;6363101;28;20258;-75
2021/06/15 05:13:21;;;;;;;3.30;1.38;;;;;;;16.17;63.61;101037.06;6362847;28;20277;-75
2021/06/15 05:16:26;;;;;;;1.42;1.25;;;;;;;16.10;61.96;101028.13;6362528;28;20446;-75
2021/06/15 05:19:30;;;;;;;1.90;1.30;;;;;;;17.99;58.50;101034.09;6363431;28;20245;-75
2021/06/15 05:22:40;;;;;;;4.88;1.20;;;;;;;17.77;59.34;101047.13;6362225;28;20186;-75
2021/06/15 05:25:47;;;;;;;1.40;1.10;;;;;;;18.22;59.20;101036.53;6363777;28;20224;-76
2021/06/15 05:28:51;;;;;;;6.72;1.38;;;;;;;18.67;56.55;101036.94;6363436;28;20182;-76
2021/06/15 05:31:55;;;;;;;2.00;0.95;;;;;;;18.80;55.60;101040.34;6363096;28;20210;-76
2021/06/15 05:35:01;;;;;;;1.85;1.20;;;;;;;18.55;55.00;101028.00;6362177;28;20461;-76
2021/06/15 05:38:06;;;;;;;2.65;1.10;;;;;;;18.77;55.14;101051.94;6361556;28;20190;-75
2021/06/15 05:41:11;;;;;;;5.95;1.40;;;;;;;18.59;55.17;101051.22;6362347;28;20186;-75
2021/06/15 05:44:16;;;;;;;2.83;1.20;;;;;;;18.37;54.82;101056.00;6363158;28;20182;-75
2021/06/15 05:47:20;;;;;;;3.47;1.25;;;;;;;18.32;54.28;101067.00;6362577;28;20265;-75
2021/06/15 05:50:24;;;;;;;1.13;0.95;;;;;;;18.40;55.14;101063.78;6344001;28;20484;-76
2021/06/15 05:53:29;;;;;;;1.20;1.02;;;;;;;18.44;53.97;101075.09;6361783;28;20442;-75
2021/06/15 05:56:35;;;;;;;0.95;0.95;;;;;;;18.44;53.63;101064.91;6353359;28;20186;-75
2021/06/15 05:59:39;;;;;;;1.10;1.10;;;;;;;18.47;54.31;101071.84;6361528;28;20520;-76
2021/06/15 06:02:43;;;;;;;1.65;1.10;;;;;;;18.27;54.44;101074.41;6361610;28;20240;-76
2021/06/15 06:09:14;;;;;;;2.05;0.98;;;;;;;18.01;53.28;101092.66;6287548;28;20202;-76
2021/06/15 06:12:20;;;;;;;1.38;1.30;;;;;;;18.18;55.03;101079.56;6361428;28;20216;-74
2021/06/15 06:15:24;;;;;;;1.20;1.20;;;;;;;18.20;54.36;101085.69;6362054;28;20248;-74
2021/06/15 06:18:28;;;;;;;3.78;1.15;;;;;;;18.05;54.75;101091.06;6362646;28;20249;-75
2021/06/15 06:21:38;;;;;;;6.03;1.75;;;;;;;18.37;53.88;101086.38;6363133;28;20194;-75
2021/06/15 06:24:42;;;;;;;1.08;1.08;;;;;;;18.29;54.39;101089.63;6366315;28;20431;-75
2021/06/15 06:27:48;;;;;;;1.60;1.02;;;;;;;18.47;54.62;101086.50;6366232;28;20407;-75
2021/06/15 06:30:53;;;;;;;2.80;1.30;;;;;;;18.28;53.70;101081.59;6367172;28;20186;-75
2021/06/15 06:33:57;;;;;;;2.05;1.10;;;;;;;18.26;51.88;101084.63;6367442;28;20188;-75
2021/06/15 06:37:01;;;;;;;4.32;0.98;;;;;;;18.45;52.58;101085.06;6348768;28;20197;-75
2021/06/15 06:40:07;;;;;;;2.30;1.05;;;;;;;18.56;53.55;101090.47;6367076;28;20277;-76
2021/06/15 06:43:13;;;;;;;3.70;1.10;;;;;;;18.58;51.88;101082.75;6365896;28;20516;-77
2021/06/15 06:46:17;;;;;;;9.07;1.10;;;;;;;18.56;51.95;101090.47;6366627;28;20189;-75
2021/06/15 06:49:22;;;;;;;2.25;0.90;;;;;;;18.22;51.76;101100.06;6365735;28;20233;-75
2021/06/15 06:52:26;;;;;;;0.93;0.93;;;;;;;18.38;53.54;101096.34;6347981;28;20286;-75
2021/06/15 06:55:30;;;;;;;3.03;1.23;;;;;;;18.53;52.92;101095.69;6366527;28;20182;-75
2021/06/15 06:58:36;;;;;;;0.90;0.90;;;;;;;18.64;52.84;101103.78;6365387;28;20182;-75
2021/06/15 07:01:40;;;;;;;1.08;1.08;;;;;;;18.58;52.25;101104.00;6365446;28;20186;-75
2021/06/15 07:04:44;;;;;;;1.10;0.80;;;;;;;18.47;52.20;101103.09;6366651;28;20186;-75
2021/06/15 07:07:51;;;;;;;3.05;0.90;;;;;;;18.56;51.41;101101.53;6366439;28;20214;-75
2021/06/15 07:10:55;;;;;;;0.98;0.98;;;;;;;18.72;52.22;101106.06;6366165;28;20228;-75
2021/06/15 07:14:01;;;;;;;0.90;0.90;;;;;;;18.72;51.19;101110.75;6365214;28;20209;-75
2021/06/15 07:17:05;;;;;;;3.40;1.10;;;;;;;18.82;51.05;101110.00;6365213;28;20435;-75
2021/06/15 07:20:11;;;;;;;1.30;1.20;;;;;;;18.89;51.17;101110.63;6366089;28;20182;-75
2021/06/15 07:23:16;;;;;;;0.88;0.88;;;;;;;18.92;51.10;101104.56;6365846;28;20193;-75
2021/06/15 07:26:21;;;;;;;1.35;1.10;;;;;;;18.81;50.37;101108.34;6365755;28;20182;-75
2021/06/15 07:29:27;;;;;;;4.85;0.82;;;;;;;19.07;50.07;101107.44;6347469;28;20201;-75
2021/06/15 07:32:31;;;;;;;1.45;1.02;;;;;;;19.12;49.41;101115.75;6363458;28;20484;-75
2021/06/15 07:35:35;;;;;;;2.45;0.80;;;;;;;19.21;50.09;101111.38;6365397;28;20188;-75
2021/06/15 07:38:40;;;;;;;1.88;0.70;;;;;;;19.22;50.28;101116.66;6365880;28;20190;-75
2021/06/15 07:41:44;;;;;;;2.15;0.90;;;;;;;19.25;50.17;101121.66;6364787;28;20544;-75
2021/06/15 07:44:49;;;;;;;1.80;0.85;;;;;;;19.28;49.49;101121.09;6365753;28;20182;-75
2021/06/15 07:47:53;;;;;;;0.73;0.73;;;;;;;19.33;48.55;101112.03;6364517;28;20300;-75
2021/06/15 07:50:57;;;;;;;0.80;0.80;;;;;;;19.23;48.23;101128.56;6364575;28;20237;-76
2021/06/15 07:54:01;;;;;;;0.95;0.90;;;;;;;19.27;48.88;101124.16;6365434;28;20285;-76
2021/06/15 07:57:06;;;;;;;0.90;0.90;;;;;;;19.34;49.64;101120.03;6364439;28;20213;-74
2021/06/15 08:00:13;;;;;;;1.45;0.85;;;;;;;19.08;48.46;101114.63;6364659;28;20206;-74
2021/06/15 08:03:20;;;;;;;1.95;0.80;;;;;;;19.23;48.25;101120.25;6363780;28;20523;-76
2021/06/15 08:06:24;;;;;;;3.55;0.90;;;;;;;19.24;49.83;101119.97;6363813;28;20182;-74
2021/06/15 08:09:28;;;;;;;0.88;0.85;;;;;;;19.32;49.32;101115.88;6363792;28;20182;-76
2021/06/15 08:12:32;;;;;;;0.80;0.80;;;;;;;19.35;49.10;101120.88;6362963;28;20221;-75
2021/06/15 08:15:38;;;;;;;1.98;0.93;;;;;;;19.45;48.81;101120.13;6364776;28;20183;-76
2021/06/15 08:18:44;;;;;;;1.40;1.10;;;;;;;19.52;48.39;101124.31;6364585;28;20182;-76
2021/06/15 08:21:49;;;;;;;2.08;0.85;;;;;;;19.43;48.16;101117.63;6363484;28;20434;-76
2021/06/15 08:24:53;;;;;;;1.20;0.95;;;;;;;19.39;47.75;101115.69;6364430;28;20227;-74
2021/06/15 08:27:57;;;;;;;0.90;0.90;;;;;;;19.39;48.28;101132.28;6364583;28;20189;-76
2021/06/15 08:31:03;;;;;;;1.08;0.80;;;;;;;19.42;49.43;101123.44;6364030;28;20250;-74
2021/06/15 08:34:07;;;;;;;2.08;0.90;;;;;;;19.45;49.17;101115.44;6362896;28;20210;-74
2021/06/15 08:37:11;;;;;;;3.45;1.00;;;;;;;19.55;48.27;101137.63;6364358;28;20182;-74
2021/06/15 08:40:16;;;;;;;3.53;1.30;;;;;;;19.49;48.70;101111.00;6364011;28;20190;-74
2021/06/15 08:43:21;;;;;;;2.58;1.10;;;;;;;19.54;49.09;101130.41;6363029;28;20186;-74
2021/06/15 08:46:26;;;;;;;1.85;1.80;;;;;;;19.55;49.62;101126.56;6362875;28;20182;-75
2021/06/15 08:49:30;;;;;;;2.13;1.05;;;;;;;19.64;48.80;101130.47;6325734;28;20601;-74
2021/06/15 08:52:35;;;;;;;0.93;0.88;;;;;;;19.31;48.09;101130.84;6337152;28;20206;-75
2021/06/15 08:55:45;;;;;;;0.80;0.80;;;;;;;19.46;47.91;101128.19;6338136;28;20182;-75
2021/06/15 08:58:59;;;;;;;0.88;0.80;;;;;;;19.39;48.52;101138.63;6338752;28;20214;-75
2021/06/15 09:02:07;;;;;;;0.93;0.73;;;;;;;19.24;48.08;101131.03;6337234;28;20206;-75
2021/06/15 09:05:14;;;;;;;0.90;0.90;;;;;;;19.22;48.46;101132.41;6338014;28;20187;-75
2021/06/15 09:08:19;;;;;;;1.90;0.80;;;;;;;19.28;47.04;101136.88;6338059;28;20207;-75
2021/06/15 09:11:24;;;;;;;0.98;0.70;;;;;;;19.27;47.23;101140.75;6337135;28;20466;-74
2021/06/15 09:14:43;;;;;;;1.27;1.00;;;;;;;19.30;46.95;101131.91;6337095;28;20477;-75
2021/06/15 09:17:49;;;;;;;0.80;0.80;;;;;;;19.21;45.50;101136.28;6338050;28;20230;-75
2021/06/15 09:20:53;;;;;;;0.90;0.90;;;;;;;19.23;47.21;101134.09;6337699;28;20222;-74
2021/06/15 09:24:04;;;;;;;2.30;0.80;;;;;;;19.26;45.84;101139.91;6336796;28;20245;-75
2021/06/15 09:27:10;;;;;;;1.65;0.80;;;;;;;19.19;45.17;101146.78;6338291;28;20190;-75
2021/06/15 09:30:15;;;;;;;0.70;0.70;;;;;;;19.23;45.92;101147.91;6336720;28;20440;-75
2021/06/15 09:33:35;;;;;;;4.90;0.80;;;;;;;19.21;45.54;101144.56;6336577;28;20510;-75
2021/06/15 09:36:39;;;;;;;0.70;0.70;;;;;;;19.21;45.22;101152.88;6337861;28;20220;-75
2021/06/15 09:39:43;;;;;;;1.52;1.10;;;;;;;19.28;45.88;101159.03;6336683;28;20497;-74
2021/06/15 09:43:00;;;;;;;1.10;0.80;;;;;;;19.36;45.36;101155.75;6337730;28;20190;-75
2021/06/15 09:46:16;;;;;;;1.55;0.80;;;;;;;19.34;44.40;101141.34;6337520;28;20215;-75
2021/06/15 09:49:29;;;;;;;0.70;0.70;;;;;;;19.29;45.14;101155.13;6336821;28;20235;-75
2021/06/15 09:52:33;;;;;;;5.35;1.00;;;;;;;19.30;44.69;101156.81;6336346;28;20545;-75
2021/06/15 09:55:47;;;;;;;0.90;0.90;;;;;;;19.20;44.78;101156.75;6336678;28;20249;-75
2021/06/15 09:58:53;;;;;;;0.80;0.80;;;;;;;19.20;44.70;101145.69;6337115;28;20194;-75
2021/06/15 10:02:19;;;;;;;0.73;0.73;;;;;;;19.26;45.88;101150.13;6336257;28;20382;-74
2021/06/15 10:05:30;;;;;;;1.95;0.90;;;;;;;19.31;45.81;101147.44;6337201;28;20187;-74
2021/06/15 10:08:44;;;;;;;1.88;1.77;;;;;;;19.36;45.48;101150.22;6336524;28;20183;-75
2021/06/15 10:11:57;;;;;;;1.00;0.90;;;;;;;19.26;44.98;101136.31;6336751;28;20450;-75
2021/06/15 10:15:03;;;;;;;1.30;0.80;;;;;;;19.32;44.73;101160.13;6337016;28;20237;-75
2021/06/15 10:18:11;;;;;;;1.50;0.80;;;;;;;19.30;44.42;101162.34;6337094;28;20317;-74
2021/06/15 10:21:17;;;;;;;1.17;0.80;;;;;;;19.33;44.13;101159.91;6337622;28;20183;-74
2021/06/15 10:24:23;;;;;;;2.42;1.10;;;;;;;19.46;45.66;101171.63;6335691;28;20225;-74
2021/06/15 10:27:39;;;;;;;1.10;0.80;;;;;;;19.47;45.20;101168.56;6337309;28;20183;-75
2021/06/15 10:30:45;;;;;;;1.60;0.80;;;;;;;19.42;44.45;101165.75;6337485;28;20245;-74
2021/06/15 10:33:50;;;;;;;0.77;0.77;;;;;;;19.49;44.60;101177.44;6318368;28;20261;-76
2021/06/15 10:36:55;;;;;;;0.65;0.65;;;;;;;19.53;44.05;101173.03;6317370;28;20256;-75
2021/06/15 10:40:00;;;;;;;2.70;0.80;;;;;;;19.57;44.42;101163.09;6336816;28;20228;-75
2021/06/15 10:43:26;;;;;;;1.88;0.70;;;;;;;19.57;43.92;101163.09;6336856;28;20187;-75
2021/06/15 10:46:35;;;;;;;6.47;0.80;;;;;;;19.68;44.59;101169.50;6335609;28;20520;-74
2021/06/15 10:49:57;;;;;;;0.90;0.70;;;;;;;19.63;43.85;101162.03;6336200;28;20300;-75
2021/06/15 10:53:08;;;;;;;0.73;0.73;;;;;;;19.72;44.11;101182.53;6336507;28;20187;-76
2021/06/15 10:56:14;;;;;;;0.60;0.60;;;;;;;19.63;43.15;101178.63;6336730;28;20207;-76
2021/06/15 10:59:18;;;;;;;0.70;0.70;;;;;;;19.65;44.18;101198.56;6336605;28;20183;-76
2021/06/15 11:02:22;;;;;;;2.40;0.90;;;;;;;19.47;41.25;101192.63;6335628;28;20183;-75
2021/06/15 11:05:43;;;;;;;0.70;0.70;;;;;;;19.59;41.62;101199.66;6335855;28;20524;-75
2021/06/15 11:09:19;;;;;;;1.52;0.63;;;;;;;19.64;41.70;101188.63;6339283;28;20260;-75
2021/06/15 11:12:24;;;;;;;0.70;0.70;;;;;;;19.74;43.32;101193.38;6341178;28;20229;-75
2021/06/15 11:15:28;;;;;;;0.68;0.68;;;;;;;19.60;40.44;101183.84;6339557;28;20218;-75
2021/06/15 11:18:32;;;;;;;0.60;0.60;;;;;;;19.69;41.26;101185.88;6340529;28;20214;-75
2021/06/15 11:21:48;;;;;;;0.88;0.70;;;;;;;19.77;40.83;101195.59;6340981;28;20187;-75
2021/06/15 11:25:00;;;;;;;0.63;0.63;;;;;;;19.88;41.70;101203.66;6340567;28;20254;-75
2021/06/15 11:28:54;;;;;;;1.08;0.75;;;;;;;19.94;40.91;101197.06;6339433;28;20376;-75
2021/06/15 11:32:21;;;;;;;1.00;0.68;;;;;;;20.00;41.67;101212.56;6262602;28;20200;-76
2021/06/15 11:35:29;;;;;;;1.02;1.00;;;;;;;20.09;42.36;101203.75;6263147;28;20235;-75
2021/06/15 11:38:33;;;;;;;3.95;0.70;;;;;;;20.12;41.64;101197.69;6262422;28;20217;-76
2021/06/15 11:42:29;;;;;;;1.45;1.00;;;;;;;20.20;40.39;101203.53;6263241;28;20275;-75
2021/06/15 11:45:36;;;;;;;1.05;0.98;;;;;;;19.88;39.61;101206.44;6246120;28;20216;-74
2021/06/15 11:48:43;;;;;;;1.63;0.70;;;;;;;20.14;40.78;101207.38;6262158;28;20225;-75
2021/06/15 11:51:47;;;;;;;2.75;0.98;;;;;;;20.30;40.85;101222.16;6262812;28;20185;-75
2021/06/15 11:54:51;;;;;;;0.70;0.70;;;;;;;20.25;40.14;101208.28;6262182;28;20440;-75
2021/06/15 11:58:01;;;;;;;0.60;0.60;;;;;;;20.29;40.04;101223.25;6262234;28;20184;-75
2021/06/15 12:01:10;;;;;;;5.80;0.80;;;;;;;20.32;39.95;101215.22;6262618;28;20418;-74
2021/06/15 12:04:14;;;;;;;1.88;0.65;;;;;;;20.41;39.59;101218.31;6339704;28;20221;-73
2021/06/15 12:07:18;;;;;;;0.85;0.85;;;;;;;20.54;40.39;101223.34;6338827;28;20183;-75
2021/06/15 12:10:24;;;;;;;1.17;0.60;;;;;;;20.51;40.39;101229.44;6339981;28;20182;-75
2021/06/15 12:13:30;;;;;;;5.70;1.33;;;;;;;20.65;39.84;101225.00;6338639;28;20182;-75
2021/06/15 12:16:35;;;;;;;4.40;0.90;;;;;;;20.73;38.94;101230.03;6321744;28;20240;-76
2021/06/15 12:19:40;;;;;;;2.63;0.85;;;;;;;20.84;39.23;101242.81;6339495;28;20183;-74
2021/06/15 12:22:44;;;;;;;0.90;0.90;;;;;;;20.75;38.58;101244.44;6337419;28;20396;-74
2021/06/15 12:25:49;;;;;;;2.80;0.70;;;;;;;20.78;39.34;101241.13;6339570;28;20193;-74
2021/06/15 12:28:55;;;;;;;0.70;0.70;;;;;;;20.94;39.06;101251.13;6338624;28;20218;-73
2021/06/15 12:32:01;;;;;;;1.38;0.80;;;;;;;20.91;38.58;101251.69;6338889;28;20214;-73
2021/06/15 12:35:18;;;;;;;0.90;0.90;;;;;;;20.94;37.85;101245.59;6339124;28;20206;-73
2021/06/15 12:38:22;;;;;;;3.30;0.75;;;;;;;20.89;37.25;101242.81;6339330;28;20187;-74
2021/06/15 12:41:27;;;;;;;1.30;0.82;;;;;;;20.93;36.92;101238.38;6338742;28;20205;-74
2021/06/15 12:44:34;;;;;;;1.38;0.80;;;;;;;21.06;37.98;101226.75;6339135;28;20250;-74
2021/06/15 12:47:49;;;;;;;2.78;0.80;;;;;;;21.20;37.49;101238.97;6331316;28;20542;-74
2021/06/15 12:51:06;;;;;;;0.82;0.77;;;;;;;21.21;37.38;101243.41;6320203;28;20270;-74
2021/06/15 12:54:19;;;;;;;3.78;0.85;;;;;;;21.33;38.32;101257.00;6337271;28;20206;-76
2021/06/15 12:57:24;;;;;;;2.25;0.80;;;;;;;21.12;37.13;101236.75;6338510;28;20206;-73
2021/06/15 13:00:31;;;;;;;3.45;0.90;;;;;;;21.31;36.87;101250.06;6337616;28;20214;-75
2021/06/15 13:03:53;;;;;;;1.17;0.90;;;;;;;21.21;37.16;101246.19;6338470;28;20232;-75
2021/06/15 13:06:59;;;;;;;1.27;0.70;;;;;;;21.24;36.92;101243.97;6337185;28;20495;-75
2021/06/15 13:10:16;;;;;;;6.40;1.02;;;;;;;21.51;38.00;101261.16;6337494;28;20399;-75
2021/06/15 13:13:28;;;;;;;1.08;0.65;;;;;;;21.60;37.56;101245.59;6338529;28;20190;-76
2021/06/15 13:16:41;;;;;;;3.78;1.02;;;;;;;21.70;37.93;101253.91;6337176;28;20281;-75
2021/06/15 13:19:49;;;;;;;0.70;0.70;;;;;;;21.78;37.83;101250.56;6337417;28;20380;-75
2021/06/15 13:22:54;;;;;;;3.35;1.10;;;;;;;21.68;37.99;101250.56;6336823;28;20230;-75
2021/06/15 13:25:58;;;;;;;2.25;0.80;;;;;;;21.37;36.13;101249.78;6336685;28;20398;-75
2021/06/15 13:29:03;;;;;;;0.90;0.90;;;;;;;21.64;37.47;101249.50;6337701;28;20260;-75
2021/06/15 13:32:15;;;;;;;2.25;0.70;;;;;;;21.78;37.37;101250.56;6337388;28;20183;-75
2021/06/15 13:35:26;;;;;;;1.20;0.90;;;;;;;21.81;36.91;101252.78;6337569;28;20281;-76
2021/06/15 13:38:32;;;;;;;5.50;1.58;;;;;;;21.84;38.00;101271.66;6336741;28;20182;-76
2021/06/15 13:41:37;;;;;;;1.67;0.90;;;;;;;21.85;36.28;101267.78;6337914;28;20206;-75
2021/06/15 13:44:42;;;;;;;2.20;1.00;;;;;;;22.07;36.37;101259.97;6336725;28;20194;-75
2021/06/15 13:47:46;;;;;;;0.88;0.88;;;;;;;22.18;37.28;101267.16;6340393;28;20374;-75
2021/06/15 13:50:52;;;;;;;0.82;0.68;;;;;;;23.05;35.99;101273.94;6361771;28;20204;-75
2021/06/15 13:54:01;;;;;;;0.70;0.70;;;;;;;23.91;34.79;101278.78;6361901;28;20476;-75
2021/06/15 13:57:06;;;;;;;0.85;0.70;;;;;;;23.82;33.71;101269.38;6362482;28;20281;-75
2021/06/15 14:00:16;;;;;;;5.05;1.00;;;;;;;23.99;33.73;101276.16;6362211;28;20227;-76
2021/06/15 14:03:31;;;;;;;0.90;0.88;;;;;;;24.85;32.33;101273.16;6361632;28;20531;-76
2021/06/15 14:06:47;;;;;;;2.05;0.80;;;;;;;25.36;31.17;101266.75;6361470;28;20330;-75
2021/06/15 14:09:51;;;;;;;1.15;0.68;;;;;;;26.16;31.63;101263.66;6361477;28;20406;-76
2021/06/15 14:12:56;;;;;;;6.53;0.80;;;;;;;26.33;29.92;101263.84;6361477;28;20182;-76
2021/06/15 14:16:01;;;;;;;2.60;0.80;;;;;;;26.08;30.69;101257.63;6362830;28;20281;-75
2021/06/15 14:19:05;;;;;;;1.00;0.80;;;;;;;25.35;31.55;101270.69;6361435;28;20473;-76
2021/06/15 14:22:15;;;;;;;1.00;0.77;;;;;;;24.84;32.43;101277.06;6362722;28;20220;-78
2021/06/15 14:25:22;;;;;;;0.85;0.70;;;;;;;24.58;32.44;101283.25;6362792;28;20182;-75
2021/06/15 14:28:26;;;;;;;2.17;0.65;;;;;;;23.80;31.62;101285.56;6343304;28;20234;-75
2021/06/15 14:31:30;;;;;;;1.17;0.80;;;;;;;23.91;32.97;101281.56;6361233;28;20544;-75
2021/06/15 14:34:40;;;;;;;0.80;0.80;;;;;;;23.81;34.63;101295.56;6362364;28;20189;-75
2021/06/15 14:37:46;;;;;;;2.88;1.23;;;;;;;23.75;34.57;101302.34;6360920;28;20430;-75
2021/06/15 14:40:50;;;;;;;0.68;0.68;;;;;;;23.59;34.48;101310.84;6361210;28;20214;-75